KMWO

Middletown Regional / Hook Field Airport

Middletown, Ohio, USA
METAR KMWO 170235Z AUTO 20005KT 10SM CLR 06/03 A3018 RMK AO2 T00570028
Observed Flight Rules
Oct-17 @ 02:35 UTC (35 minutes ago) Visual Flight Rules
Wind Visibility Clouds
200° at 5 knots 10 miles
  • Clear skies
Temperatures Readings
Current 6°C / 43°F
Dewpoint 3°C / 37°F
Humidity 81%
Altimeter 30.18" Hg
Pressure 1022 hPa
Elevation 198
METAR KMWO 170235Z AUTO 20005KT 10SM CLR 06/03 A3018 RMK AO2 T00570028
Observed Flight Rules
Oct-17 @ 02:35 UTC
(35 minutes ago)
VFR
Wind Visibility
200° at 5 knots 10 miles
Clouds
  • Clear skies
Temperature Dewpoint
6°C / 43°F 3°C / 37°F
Humidity Altimeter Pressure
81% 30.18" Hg 1022 hPa